Time;durP1;ratioP1;P1;durP2;ratioP2;P2;SDS_P1;SDS_P2;PMS_P1;PMS_P2;Temp;Humidity;BMP_temperature;BMP_pressure;BME280_temperature;BME280_humidity;BME280_pressure;Samples;Min_cycle;Max_cycle;Signal;HPM_P1;HPM_P2
2023/03/31 00:01:15;;;;;;;12.23;4.15;;;12.50;99.90;;;;;;5041741;28;20199;-79
2023/03/31 00:03:44;;;;;;;12.63;5.55;;;12.40;99.90;;;;;;5037644;28;20238;-79
2023/03/31 00:06:16;;;;;;;10.00;4.38;;;12.40;99.90;;;;;;5051215;28;20644;-79
2023/03/31 00:08:43;;;;;;;12.82;4.93;;;12.30;99.90;;;;;;5030851;28;20195;-79
2023/03/31 00:11:11;;;;;;;11.13;5.15;;;12.30;99.90;;;;;;5041958;28;20199;-80
2023/03/31 00:13:38;;;;;;;10.50;5.63;;;12.30;99.90;;;;;;5040267;28;20199;-79
2023/03/31 00:16:08;;;;;;;10.75;4.90;;;12.30;99.90;;;;;;5043029;28;20254;-80
2023/03/31 00:18:36;;;;;;;8.13;4.32;;;12.20;99.90;;;;;;5038139;28;20206;-79
2023/03/31 00:21:08;;;;;;;14.90;6.75;;;12.40;99.90;;;;;;5031542;28;20200;-80
2023/03/31 00:23:35;;;;;;;11.48;5.90;;;12.20;99.90;;;;;;5031215;28;20233;-81
2023/03/31 00:26:02;;;;;;;12.40;4.60;;;12.20;99.90;;;;;;5049872;28;20306;-78
2023/03/31 00:28:29;;;;;;;11.63;5.10;;;12.10;99.90;;;;;;5041874;28;20209;-78
2023/03/31 00:31:00;;;;;;;15.75;5.65;;;12.20;99.90;;;;;;5042819;28;20253;-78
2023/03/31 00:33:29;;;;;;;15.02;4.93;;;12.20;99.90;;;;;;5058834;28;20206;-79
2023/03/31 00:36:00;;;;;;;15.68;6.78;;;12.10;99.90;;;;;;5047353;28;20222;-79
2023/03/31 00:38:27;;;;;;;14.45;4.40;;;12.10;99.90;;;;;;5045218;28;20605;-79
2023/03/31 00:40:54;;;;;;;14.13;6.00;;;12.10;99.90;;;;;;5056491;28;20239;-80
2023/03/31 00:43:31;;;;;;;10.85;4.32;;;12.10;99.90;;;;;;5054136;28;20232;-79
2023/03/31 00:46:14;;;;;;;18.67;5.90;;;12.10;99.90;;;;;;5037601;28;20223;-79
2023/03/31 00:48:47;;;;;;;15.60;4.47;;;12.10;99.90;;;;;;5047754;28;20216;-79
2023/03/31 00:51:14;;;;;;;18.52;7.25;;;12.10;99.90;;;;;;5049465;28;20211;-79
2023/03/31 00:53:42;;;;;;;10.23;4.47;;;12.20;99.90;;;;;;5052557;28;20221;-79
2023/03/31 00:56:13;;;;;;;8.70;5.22;;;12.20;99.90;;;;;;5052565;28;20222;-80
2023/03/31 00:58:44;;;;;;;13.30;7.00;;;12.00;99.90;;;;;;5043195;28;21343;-80
2023/03/31 01:01:15;;;;;;;10.73;4.40;;;12.10;99.90;;;;;;5040437;28;20209;-80
2023/03/31 01:03:45;;;;;;;8.80;4.93;;;12.10;99.90;;;;;;5054256;28;20221;-80
2023/03/31 01:06:15;;;;;;;14.25;5.10;;;12.10;99.90;;;;;;5044488;28;20223;-79
2023/03/31 01:08:44;;;;;;;15.15;4.80;;;12.00;99.90;;;;;;5040099;28;20203;-81
2023/03/31 01:11:15;;;;;;;12.25;5.05;;;12.00;99.90;;;;;;5043106;28;20203;-80
2023/03/31 01:13:44;;;;;;;10.60;5.22;;;12.00;99.90;;;;;;5040936;28;20200;-81
2023/03/31 01:16:11;;;;;;;9.68;4.90;;;12.10;99.90;;;;;;5054813;28;20313;-79
2023/03/31 01:18:38;;;;;;;12.45;5.38;;;12.00;99.90;;;;;;5052097;28;20199;-79
2023/03/31 01:21:39;;;;;;;11.23;3.80;;;12.10;99.90;;;;;;5052674;28;20213;-79
2023/03/31 01:24:39;;;;;;;16.40;4.72;;;12.00;99.90;;;;;;5047837;28;20309;-80
2023/03/31 01:27:32;;;;;;;10.93;5.45;;;12.10;99.90;;;;;;5042766;28;20300;-80
2023/03/31 01:30:21;;;;;;;11.88;4.15;;;12.10;99.90;;;;;;5049752;28;20588;-78
2023/03/31 01:33:12;;;;;;;13.93;5.60;;;12.10;99.90;;;;;;5059836;28;20199;-80
2023/03/31 01:36:18;;;;;;;13.30;5.50;;;12.20;99.90;;;;;;5044182;28;20223;-80
2023/03/31 01:39:23;;;;;;;9.05;3.95;;;12.20;99.90;;;;;;5055388;28;20575;-78
2023/03/31 01:42:02;;;;;;;15.35;4.65;;;12.20;99.90;;;;;;5044887;28;20240;-80
2023/03/31 01:44:40;;;;;;;10.02;4.65;;;12.20;99.90;;;;;;5065258;28;20204;-82
2023/03/31 01:47:12;;;;;;;16.25;5.20;;;12.20;99.90;;;;;;5052089;28;20219;-80
2023/03/31 01:49:46;;;;;;;11.35;5.60;;;12.30;99.90;;;;;;5040426;28;20207;-80
2023/03/31 01:52:21;;;;;;;15.23;4.47;;;12.20;99.90;;;;;;5030732;28;20286;-80
2023/03/31 01:54:53;;;;;;;15.75;5.25;;;12.20;99.90;;;;;;5051722;28;20671;-79
2023/03/31 01:57:27;;;;;;;14.00;4.90;;;12.20;99.90;;;;;;5038260;28;20266;-80
2023/03/31 02:00:02;;;;;;;16.65;4.53;;;12.20;99.90;;;;;;5044528;28;20198;-78
2023/03/31 02:02:32;;;;;;;9.40;5.35;;;12.20;99.90;;;;;;5029328;28;20210;-80
2023/03/31 02:05:04;;;;;;;12.52;5.00;;;12.20;99.90;;;;;;5040073;28;20227;-80
2023/03/31 02:07:35;;;;;;;11.98;5.00;;;12.20;99.90;;;;;;5048369;28;20208;-80
2023/03/31 02:10:07;;;;;;;14.68;4.90;;;12.20;99.90;;;;;;5056124;28;20198;-80
2023/03/31 02:12:38;;;;;;;14.93;5.00;;;12.10;99.90;;;;;;5046998;28;20207;-79
2023/03/31 02:15:10;;;;;;;13.10;6.15;;;12.00;99.90;;;;;;5045996;28;20223;-79
2023/03/31 02:17:39;;;;;;;11.32;4.93;;;12.00;99.90;;;;;;5040048;28;20203;-79
2023/03/31 02:20:10;;;;;;;11.52;5.50;;;12.00;99.90;;;;;;5046904;28;20202;-80
2023/03/31 02:22:41;;;;;;;9.27;4.78;;;12.00;99.90;;;;;;5043280;28;20545;-79
2023/03/31 02:25:11;;;;;;;14.07;5.90;;;11.90;99.90;;;;;;5043428;28;20247;-80
2023/03/31 02:27:41;;;;;;;9.88;4.90;;;12.00;99.90;;;;;;5038501;28;20305;-79
2023/03/31 02:30:10;;;;;;;10.15;4.78;;;12.00;99.90;;;;;;5046797;28;20497;-80
2023/03/31 02:32:40;;;;;;;12.55;3.63;;;12.00;99.90;;;;;;5048237;28;20204;-79
2023/03/31 02:35:10;;;;;;;9.82;4.60;;;12.10;99.90;;;;;;5037764;28;20219;-79
2023/03/31 02:37:38;;;;;;;9.68;5.30;;;12.10;99.90;;;;;;5044630;28;20261;-80
2023/03/31 02:40:09;;;;;;;16.58;5.35;;;12.20;99.90;;;;;;5035108;28;20210;-79
2023/03/31 02:42:37;;;;;;;6.90;4.15;;;12.20;99.90;;;;;;5040182;28;20206;-80
2023/03/31 02:45:07;;;;;;;9.73;4.05;;;12.20;99.90;;;;;;5045654;28;20218;-80
2023/03/31 02:47:34;;;;;;;10.20;4.60;;;12.20;99.90;;;;;;5042361;28;20199;-80
2023/03/31 02:50:04;;;;;;;20.35;5.38;;;12.10;99.90;;;;;;5055365;28;20202;-79
2023/03/31 02:52:45;;;;;;;8.95;4.10;;;12.10;99.90;;;;;;5043409;28;20213;-78
2023/03/31 02:55:38;;;;;;;12.10;5.10;;;12.20;99.90;;;;;;5044512;28;20229;-79
2023/03/31 02:58:34;;;;;;;14.55;5.00;;;12.10;99.90;;;;;;5032230;28;20654;-81
2023/03/31 03:01:11;;;;;;;7.53;3.92;;;12.10;99.90;;;;;;5046263;28;20200;-80
2023/03/31 03:03:47;;;;;;;19.67;4.18;;;12.10;99.90;;;;;;5047485;28;20262;-81
2023/03/31 03:06:26;;;;;;;12.05;4.05;;;12.00;99.90;;;;;;5040217;28;20329;-81
2023/03/31 03:09:07;;;;;;;10.20;3.15;;;12.00;99.90;;;;;;5040477;28;20654;-81
2023/03/31 03:11:43;;;;;;;13.95;5.13;;;11.90;99.90;;;;;;5045322;28;20615;-80
2023/03/31 03:14:17;;;;;;;9.48;4.18;;;11.90;99.90;;;;;;5043491;28;20716;-81
2023/03/31 03:16:48;;;;;;;19.13;4.85;;;11.90;99.90;;;;;;5046566;28;20217;-81
2023/03/31 03:19:20;;;;;;;7.20;3.55;;;12.10;99.90;;;;;;5033095;28;20228;-81
2023/03/31 03:21:47;;;;;;;6.82;3.00;;;11.90;99.90;;;;;;5047749;28;20226;-81
2023/03/31 03:24:15;;;;;;;9.00;3.65;;;11.90;99.90;;;;;;5041374;28;20682;-80
2023/03/31 03:26:43;;;;;;;4.95;4.10;;;11.80;99.90;;;;;;5048854;28;20217;-82
2023/03/31 03:29:12;;;;;;;19.70;4.95;;;11.80;99.90;;;;;;5036390;28;20222;-80
2023/03/31 03:31:38;;;;;;;10.85;6.35;;;11.80;99.90;;;;;;5055632;28;20213;-81
2023/03/31 03:34:08;;;;;;;14.02;5.38;;;11.70;99.90;;;;;;5051368;28;20234;-81
2023/03/31 03:36:35;;;;;;;8.48;3.10;;;11.80;99.90;;;;;;5042971;28;20238;-80
2023/03/31 03:39:02;;;;;;;5.95;3.42;;;11.80;99.90;;;;;;5039947;28;20206;-81
2023/03/31 03:41:30;;;;;;;6.28;3.05;;;11.70;99.90;;;;;;5047845;28;20206;-80
2023/03/31 03:43:57;;;;;;;10.07;5.13;;;11.70;99.90;;;;;;5048477;28;20702;-80
2023/03/31 03:46:24;;;;;;;6.63;3.70;;;11.70;99.90;;;;;;5047438;28;20222;-80
2023/03/31 03:48:51;;;;;;;16.00;3.72;;;11.80;99.90;;;;;;5045999;28;20212;-81
2023/03/31 03:51:19;;;;;;;7.05;3.40;;;11.70;99.90;;;;;;5054544;28;20229;-80
2023/03/31 03:53:46;;;;;;;10.80;3.67;;;11.80;99.90;;;;;;5057297;28;20210;-81
2023/03/31 03:56:13;;;;;;;9.65;3.50;;;11.80;99.90;;;;;;5056465;28;20287;-81
2023/03/31 03:58:40;;;;;;;15.65;3.90;;;11.90;99.90;;;;;;5069911;28;20250;-80
2023/03/31 04:01:07;;;;;;;9.93;3.00;;;11.90;99.90;;;;;;5055041;28;20187;-80
2023/03/31 04:03:34;;;;;;;7.57;2.88;;;12.00;99.90;;;;;;5053455;28;20255;-80
2023/03/31 04:06:00;;;;;;;8.13;3.50;;;12.00;99.90;;;;;;5062193;28;20198;-79
2023/03/31 04:08:29;;;;;;;9.25;3.40;;;11.90;99.90;;;;;;5056670;28;20211;-80
2023/03/31 04:10:55;;;;;;;10.35;3.80;;;11.90;99.90;;;;;;5053628;28;20953;-80
2023/03/31 04:13:22;;;;;;;5.95;3.15;;;11.90;99.90;;;;;;5055009;28;20225;-79
2023/03/31 04:15:49;;;;;;;6.57;3.20;;;11.90;99.90;;;;;;5060600;28;20217;-79
2023/03/31 04:18:21;;;;;;;14.23;3.75;;;11.90;99.90;;;;;;5062287;28;20244;-81
2023/03/31 04:20:53;;;;;;;10.93;4.20;;;11.90;99.90;;;;;;5054232;28;20192;-80
2023/03/31 04:23:22;;;;;;;13.68;4.35;;;11.90;99.90;;;;;;5057362;28;20226;-79
2023/03/31 04:25:50;;;;;;;11.93;4.60;;;12.00;99.90;;;;;;5068191;28;20239;-79
2023/03/31 04:28:17;;;;;;;12.20;4.53;;;12.10;99.90;;;;;;5056416;28;20256;-80
2023/03/31 04:30:44;;;;;;;11.65;5.40;;;12.00;99.90;;;;;;5054411;28;20206;-80
2023/03/31 04:33:14;;;;;;;13.48;4.15;;;12.00;99.90;;;;;;5055667;28;20191;-79
2023/03/31 04:35:51;;;;;;;15.20;5.15;;;12.00;99.90;;;;;;5059187;28;20278;-79
2023/03/31 04:38:19;;;;;;;13.75;4.72;;;12.00;99.90;;;;;;5052475;28;20199;-78
2023/03/31 04:40:47;;;;;;;11.07;4.35;;;12.00;99.90;;;;;;5048980;28;20242;-80
2023/03/31 04:43:16;;;;;;;11.70;4.35;;;12.10;99.90;;;;;;5059424;28;20196;-80
2023/03/31 04:45:43;;;;;;;11.05;4.40;;;12.10;99.90;;;;;;5055435;28;20214;-80
2023/03/31 04:48:10;;;;;;;10.63;5.75;;;12.00;99.90;;;;;;5057328;28;20247;-80
2023/03/31 04:50:38;;;;;;;10.27;5.68;;;12.00;99.90;;;;;;5048809;28;20210;-78
2023/03/31 04:53:06;;;;;;;11.85;5.18;;;11.90;99.90;;;;;;5056730;28;20262;-80
2023/03/31 04:55:33;;;;;;;9.25;4.50;;;11.90;99.90;;;;;;5055986;28;20245;-82
2023/03/31 04:58:00;;;;;;;8.07;5.72;;;12.00;99.90;;;;;;5039379;28;20237;-82
2023/03/31 05:00:29;;;;;;;17.10;6.80;;;12.00;99.90;;;;;;5046812;28;20267;-80
2023/03/31 05:02:56;;;;;;;11.85;7.18;;;11.90;99.90;;;;;;5043526;28;20220;-80
2023/03/31 05:05:23;;;;;;;10.23;7.60;;;12.00;99.90;;;;;;5057385;28;20261;-80
2023/03/31 05:07:49;;;;;;;22.85;8.05;;;12.00;99.90;;;;;;5039919;28;20194;-81
2023/03/31 05:10:17;;;;;;;18.20;7.22;;;11.90;99.90;;;;;;5049795;28;20662;-80
2023/03/31 05:12:43;;;;;;;20.60;8.55;;;11.90;99.90;;;;;;5039471;28;20211;-81
2023/03/31 05:15:11;;;;;;;9.93;6.53;;;11.90;99.90;;;;;;5043738;28;20225;-81
2023/03/31 05:17:39;;;;;;;13.82;7.30;;;11.90;99.90;;;;;;5051873;28;20243;-79
2023/03/31 05:20:08;;;;;;;12.18;6.53;;;11.80;99.90;;;;;;5048584;28;20245;-81
2023/03/31 05:22:36;;;;;;;13.50;7.25;;;11.80;99.90;;;;;;5050795;28;20214;-82
2023/03/31 05:25:05;;;;;;;19.05;7.38;;;11.80;99.90;;;;;;5042413;28;20241;-81
2023/03/31 05:27:31;;;;;;;16.20;7.22;;;11.70;99.90;;;;;;5037962;28;20279;-81
2023/03/31 05:29:59;;;;;;;17.17;7.90;;;11.70;99.90;;;;;;5025778;28;20216;-81
2023/03/31 05:32:26;;;;;;;14.05;8.70;;;11.70;99.90;;;;;;5042847;28;20206;-81
2023/03/31 05:34:56;;;;;;;16.58;10.15;;;11.70;99.90;;;;;;5050853;28;20286;-81
2023/03/31 05:37:24;;;;;;;11.98;7.57;;;11.70;99.90;;;;;;5043852;28;20224;-80
2023/03/31 05:39:52;;;;;;;17.67;7.93;;;11.80;99.90;;;;;;5036918;28;20198;-82
2023/03/31 05:42:20;;;;;;;18.30;9.52;;;11.70;99.90;;;;;;5049265;28;20263;-82
2023/03/31 05:44:47;;;;;;;20.92;9.65;;;11.70;99.90;;;;;;5049429;28;20326;-80
2023/03/31 05:47:14;;;;;;;12.65;8.20;;;11.80;99.90;;;;;;5043381;28;20260;-81
2023/03/31 05:49:41;;;;;;;12.70;7.95;;;11.70;99.90;;;;;;5044767;28;20212;-81
2023/03/31 05:52:10;;;;;;;18.92;9.80;;;11.70;99.90;;;;;;5047851;28;20642;-81
2023/03/31 05:54:37;;;;;;;11.80;7.80;;;11.70;99.90;;;;;;5045581;28;20235;-80
2023/03/31 05:57:04;;;;;;;17.10;9.93;;;11.90;99.90;;;;;;5051443;28;20637;-82
2023/03/31 05:59:31;;;;;;;16.75;9.30;;;11.70;99.90;;;;;;5042100;28;20198;-81
2023/03/31 06:01:58;;;;;;;11.68;8.10;;;11.50;99.90;;;;;;5053267;28;20260;-80
2023/03/31 06:04:25;;;;;;;18.77;7.55;;;11.50;99.90;;;;;;5052148;28;20322;-81
2023/03/31 06:06:52;;;;;;;14.43;8.73;;;11.50;99.90;;;;;;5057946;28;20636;-81
2023/03/31 06:09:21;;;;;;;15.02;8.50;;;11.50;99.90;;;;;;5059960;28;20239;-78
2023/03/31 06:11:48;;;;;;;13.82;8.05;;;11.50;99.90;;;;;;5061329;28;20636;-79
2023/03/31 06:14:15;;;;;;;19.20;9.43;;;11.50;99.90;;;;;;5060400;28;20210;-79
2023/03/31 06:16:41;;;;;;;16.83;7.95;;;11.50;99.90;;;;;;5060010;28;20202;-79
2023/03/31 06:19:08;;;;;;;11.90;8.00;;;11.40;99.90;;;;;;5058012;28;20238;-79
2023/03/31 06:21:35;;;;;;;13.93;8.07;;;11.40;99.90;;;;;;5053205;28;20241;-79
2023/03/31 06:24:02;;;;;;;15.77;8.60;;;11.50;99.90;;;;;;5046790;28;20290;-78
2023/03/31 06:26:30;;;;;;;14.25;9.23;;;11.50;99.90;;;;;;5058133;28;20271;-79
2023/03/31 06:28:57;;;;;;;13.80;9.13;;;11.50;99.90;;;;;;5051640;28;20218;-79
2023/03/31 06:31:25;;;;;;;14.98;9.02;;;11.50;99.90;;;;;;5069263;28;20221;-79
2023/03/31 06:33:52;;;;;;;16.90;8.63;;;11.50;99.90;;;;;;5058755;28;20225;-80
2023/03/31 06:36:21;;;;;;;16.63;8.70;;;11.40;99.90;;;;;;5054887;28;20279;-79
2023/03/31 06:38:48;;;;;;;18.05;10.73;;;11.40;99.90;;;;;;5056129;28;20206;-79
2023/03/31 06:41:16;;;;;;;16.30;9.55;;;11.50;99.90;;;;;;5067277;28;20269;-79
2023/03/31 06:43:45;;;;;;;14.98;9.30;;;11.60;99.90;;;;;;5056861;28;20244;-81
2023/03/31 06:46:12;;;;;;;16.58;9.85;;;11.70;99.90;;;;;;5052999;28;20286;-80
2023/03/31 06:48:40;;;;;;;16.77;8.30;;;11.60;99.90;;;;;;5051048;28;20239;-82
2023/03/31 06:51:08;;;;;;;12.30;7.35;;;11.60;99.90;;;;;;5042576;28;20210;-79
2023/03/31 06:53:35;;;;;;;12.35;9.02;;;11.80;99.90;;;;;;5044598;28;20205;-80
2023/03/31 06:56:03;;;;;;;11.23;7.85;;;11.80;99.90;;;;;;5052971;28;20247;-79
2023/03/31 06:58:29;;;;;;;18.58;8.77;;;11.90;99.90;;;;;;5043873;28;20210;-79
2023/03/31 07:00:58;;;;;;;12.38;9.98;;;11.90;99.90;;;;;;5049467;28;20238;-79
2023/03/31 07:03:25;;;;;;;15.98;7.82;;;11.80;99.90;;;;;;5055382;28;20213;-79
2023/03/31 07:05:53;;;;;;;14.15;6.82;;;11.80;99.90;;;;;;5063531;28;20245;-79
2023/03/31 07:08:20;;;;;;;10.43;7.40;;;12.00;99.90;;;;;;5049866;28;20203;-79
2023/03/31 07:10:47;;;;;;;11.95;9.05;;;11.90;99.90;;;;;;5047741;28;20219;-77
2023/03/31 07:13:15;;;;;;;14.00;7.25;;;11.90;99.90;;;;;;5047569;28;20203;-78
2023/03/31 07:15:43;;;;;;;15.70;7.18;;;12.10;99.90;;;;;;5055564;28;20216;-80
2023/03/31 07:18:11;;;;;;;13.13;7.45;;;12.20;99.90;;;;;;5050799;28;20212;-79
2023/03/31 07:20:38;;;;;;;13.52;6.95;;;12.30;99.90;;;;;;5065985;28;20229;-77
2023/03/31 07:23:05;;;;;;;10.88;6.97;;;12.20;99.90;;;;;;5058074;28;20238;-77
2023/03/31 07:25:33;;;;;;;11.27;7.13;;;12.10;99.90;;;;;;5052752;28;20256;-78
2023/03/31 07:28:02;;;;;;;11.45;6.70;;;12.10;99.90;;;;;;5059786;28;20290;-78
2023/03/31 07:30:29;;;;;;;8.15;6.80;;;12.10;99.90;;;;;;5043198;28;20227;-79
2023/03/31 07:32:56;;;;;;;9.70;6.18;;;12.10;99.90;;;;;;5044585;28;20215;-79
2023/03/31 07:35:24;;;;;;;13.27;7.20;;;12.20;99.90;;;;;;5043950;28;20223;-79
2023/03/31 07:37:51;;;;;;;11.15;7.45;;;12.40;99.90;;;;;;5036493;28;20218;-78
2023/03/31 07:40:21;;;;;;;12.68;7.60;;;12.40;99.90;;;;;;5037897;28;20686;-81
2023/03/31 07:42:48;;;;;;;9.65;7.10;;;12.50;99.90;;;;;;5038288;28;20260;-80
2023/03/31 07:45:16;;;;;;;9.70;7.35;;;12.50;99.90;;;;;;5050750;28;20227;-79
2023/03/31 07:47:43;;;;;;;14.93;8.05;;;12.50;99.90;;;;;;5043569;28;20216;-79
2023/03/31 07:50:10;;;;;;;12.75;8.15;;;12.60;99.90;;;;;;5050153;28;20275;-78
2023/03/31 07:52:41;;;;;;;8.30;6.68;;;12.60;99.90;;;;;;5052118;28;20199;-79
2023/03/31 07:55:09;;;;;;;13.40;7.65;;;12.60;99.90;;;;;;5049198;28;20228;-80
2023/03/31 07:57:36;;;;;;;8.75;7.13;;;12.80;99.90;;;;;;5047555;28;20203;-79
2023/03/31 08:00:06;;;;;;;9.73;6.88;;;12.80;99.90;;;;;;5052538;28;20212;-79
2023/03/31 08:02:33;;;;;;;11.68;8.82;;;12.80;99.90;;;;;;5046302;28;20216;-79
2023/03/31 08:05:00;;;;;;;13.10;7.15;;;12.70;99.90;;;;;;5044895;28;20276;-79
2023/03/31 08:07:29;;;;;;;11.82;8.18;;;12.90;99.90;;;;;;5034069;28;20295;-79
2023/03/31 08:09:58;;;;;;;9.10;7.55;;;12.90;99.90;;;;;;5039791;28;20212;-77
2023/03/31 08:12:25;;;;;;;12.63;8.05;;;12.90;99.90;;;;;;5039463;28;20728;-80
2023/03/31 08:14:51;;;;;;;11.30;7.95;;;12.90;99.90;;;;;;5037340;28;20224;-83
2023/03/31 08:17:18;;;;;;;8.60;7.80;;;12.90;99.90;;;;;;5030403;28;20208;-81
2023/03/31 08:19:45;;;;;;;10.60;7.10;;;12.90;99.90;;;;;;5040015;28;20365;-81
2023/03/31 08:22:12;;;;;;;8.10;6.50;;;12.90;99.90;;;;;;5052511;28;20196;-79
2023/03/31 08:24:38;;;;;;;7.65;6.95;;;12.80;99.90;;;;;;5050610;28;20302;-79
2023/03/31 08:27:07;;;;;;;10.27;7.47;;;12.80;99.90;;;;;;5053595;28;20274;-79
2023/03/31 08:29:34;;;;;;;10.13;6.80;;;13.00;99.90;;;;;;5047521;28;20895;-78
2023/03/31 08:32:00;;;;;;;6.95;6.22;;;13.10;99.90;;;;;;5041563;28;20227;-82
2023/03/31 08:34:27;;;;;;;6.25;5.65;;;13.00;99.90;;;;;;5052074;28;20256;-79
2023/03/31 08:36:54;;;;;;;12.63;7.50;;;13.10;99.90;;;;;;5056472;28;20203;-80
2023/03/31 08:39:28;;;;;;;11.27;6.18;;;13.10;99.90;;;;;;5054786;28;20642;-79
2023/03/31 08:42:00;;;;;;;8.68;5.78;;;13.00;99.90;;;;;;5045518;28;20198;-79
2023/03/31 08:44:35;;;;;;;7.70;5.85;;;13.10;99.90;;;;;;5049218;28;20179;-80
2023/03/31 08:47:03;;;;;;;9.18;5.35;;;13.20;99.90;;;;;;5043870;28;20211;-79
2023/03/31 08:49:40;;;;;;;6.72;5.15;;;13.30;99.90;;;;;;5035669;28;20272;-78
2023/03/31 08:52:12;;;;;;;7.65;5.32;;;13.20;99.90;;;;;;5047700;28;20264;-78
2023/03/31 08:54:42;;;;;;;8.63;5.13;;;13.30;99.90;;;;;;5040816;28;20273;-79
2023/03/31 08:57:16;;;;;;;6.50;5.63;;;13.20;99.90;;;;;;5044788;28;20205;-78
2023/03/31 08:59:45;;;;;;;9.45;4.78;;;13.40;99.90;;;;;;5044693;28;20200;-80
2023/03/31 09:02:21;;;;;;;8.93;5.03;;;13.40;99.90;;;;;;5048193;28;20222;-78
2023/03/31 09:05:32;;;;;;;9.02;5.20;;;13.30;99.90;;;;;;5042901;28;20576;-77
2023/03/31 09:08:09;;;;;;;6.43;4.90;;;13.10;99.90;;;;;;5000556;28;20246;-78
2023/03/31 09:10:45;;;;;;;11.75;6.40;;;13.20;99.90;;;;;;5057770;28;20227;-78
2023/03/31 09:13:30;;;;;;;14.32;5.18;;;13.30;99.90;;;;;;5056607;28;20200;-78
2023/03/31 09:16:02;;;;;;;14.80;6.82;;;13.10;99.90;;;;;;5055440;28;20234;-79
2023/03/31 09:18:31;;;;;;;7.40;6.00;;;12.80;99.90;;;;;;5039852;28;20260;-80
2023/03/31 09:21:05;;;;;;;13.23;5.18;;;12.90;99.90;;;;;;5039222;28;20218;-79
2023/03/31 09:23:36;;;;;;;7.38;5.85;;;12.90;99.90;;;;;;5046658;28;20207;-80
2023/03/31 09:26:04;;;;;;;9.77;5.20;;;12.90;99.90;;;;;;5031792;28;20251;-79
2023/03/31 09:28:34;;;;;;;9.52;6.05;;;12.90;99.90;;;;;;5040152;28;20208;-80
2023/03/31 09:31:08;;;;;;;9.00;5.97;;;12.90;99.90;;;;;;5031110;28;20215;-79
2023/03/31 09:33:37;;;;;;;9.10;6.90;;;12.80;99.90;;;;;;5037535;28;20272;-78
2023/03/31 09:36:13;;;;;;;19.70;6.70;;;12.80;99.90;;;;;;5043217;28;20215;-79
2023/03/31 09:38:42;;;;;;;10.65;6.25;;;12.90;99.90;;;;;;5045919;28;20387;-81
2023/03/31 09:41:11;;;;;;;7.43;4.30;;;12.90;99.90;;;;;;5050147;28;20233;-78
2023/03/31 09:43:40;;;;;;;9.50;4.70;;;13.10;99.90;;;;;;5050868;28;20230;-81
2023/03/31 09:46:16;;;;;;;9.85;5.82;;;13.00;99.90;;;;;;5060513;28;20811;-79
2023/03/31 09:48:51;;;;;;;7.03;6.22;;;12.90;99.90;;;;;;5051559;28;20538;-79
2023/03/31 09:51:23;;;;;;;7.93;6.05;;;12.70;99.90;;;;;;5055062;28;20202;-80
2023/03/31 09:53:53;;;;;;;9.32;8.10;;;12.70;99.90;;;;;;5044712;28;20227;-78
2023/03/31 09:56:33;;;;;;;15.18;7.50;;;12.60;99.90;;;;;;5041896;28;20235;-78
2023/03/31 09:59:02;;;;;;;10.25;6.50;;;12.70;99.90;;;;;;5050532;28;20204;-83
2023/03/31 10:01:31;;;;;;;6.72;6.15;;;12.50;99.90;;;;;;5049775;28;20237;-81
2023/03/31 10:03:58;;;;;;;6.38;5.78;;;12.60;99.90;;;;;;5054385;28;20212;-83
2023/03/31 10:06:25;;;;;;;10.50;5.38;;;12.70;99.90;;;;;;5060777;28;20233;-83
2023/03/31 10:08:57;;;;;;;8.25;5.28;;;12.90;99.90;;;;;;5060060;28;20205;-81
2023/03/31 10:11:26;;;;;;;10.48;4.03;;;13.00;99.90;;;;;;5046828;28;20208;-80
2023/03/31 10:13:59;;;;;;;7.07;3.30;;;13.20;99.90;;;;;;5039199;28;20212;-79
2023/03/31 10:16:31;;;;;;;9.77;4.22;;;13.40;99.90;;;;;;5044621;28;20266;-81
2023/03/31 10:19:13;;;;;;;5.88;3.55;;;13.30;99.90;;;;;;5049637;28;20311;-80
2023/03/31 10:21:40;;;;;;;8.60;4.43;;;13.40;99.90;;;;;;5044046;28;20692;-80
2023/03/31 10:24:09;;;;;;;6.05;3.30;;;13.40;99.90;;;;;;5057940;28;20275;-81
2023/03/31 10:26:36;;;;;;;11.27;4.63;;;13.40;99.90;;;;;;5049865;28;20274;-80
2023/03/31 10:29:11;;;;;;;5.32;4.22;;;13.30;99.90;;;;;;5045927;28;20220;-82
2023/03/31 10:31:40;;;;;;;6.57;4.07;;;13.30;99.90;;;;;;5048838;28;20388;-82
2023/03/31 10:34:11;;;;;;;4.13;3.67;;;13.50;99.90;;;;;;5044818;28;20247;-80
2023/03/31 10:36:38;;;;;;;8.43;3.33;;;13.60;99.90;;;;;;5047835;28;20227;-80
2023/03/31 10:39:07;;;;;;;4.80;3.80;;;13.60;99.90;;;;;;5054693;28;20208;-81
2023/03/31 10:41:34;;;;;;;3.30;2.63;;;13.60;99.90;;;;;;5054144;28;20196;-80
2023/03/31 10:44:03;;;;;;;11.20;3.65;;;13.60;99.90;;;;;;5049247;28;20327;-80
2023/03/31 10:46:43;;;;;;;11.85;4.70;;;13.70;99.90;;;;;;5055106;28;20223;-80
2023/03/31 10:49:25;;;;;;;6.88;3.60;;;13.50;99.90;;;;;;5047866;28;20937;-81
2023/03/31 10:51:54;;;;;;;5.97;3.97;;;13.40;99.90;;;;;;5054264;28;20196;-79
2023/03/31 10:54:20;;;;;;;6.45;3.13;;;13.40;99.90;;;;;;5039015;28;20242;-81
2023/03/31 10:56:51;;;;;;;4.05;2.38;;;13.50;99.90;;;;;;5048848;28;20242;-79
2023/03/31 10:59:34;;;;;;;3.88;2.85;;;13.60;99.90;;;;;;5051860;28;20207;-80
2023/03/31 11:02:38;;;;;;;5.85;3.40;;;13.40;99.90;;;;;;5043100;28;20206;-80
2023/03/31 11:05:14;;;;;;;7.63;4.20;;;13.50;99.90;;;;;;5034095;28;20236;-79
2023/03/31 11:07:53;;;;;;;6.00;3.40;;;13.60;99.90;;;;;;5047008;28;20231;-80
2023/03/31 11:10:40;;;;;;;4.40;3.00;;;13.70;99.90;;;;;;5053414;28;20263;-82
2023/03/31 11:13:13;;;;;;;6.72;3.85;;;13.70;99.90;;;;;;5050364;28;20263;-79
2023/03/31 11:15:48;;;;;;;3.55;3.25;;;13.50;99.90;;;;;;5047877;28;20232;-80
2023/03/31 11:18:32;;;;;;;7.65;4.82;;;13.40;99.90;;;;;;5045598;28;20199;-81
2023/03/31 11:21:06;;;;;;;8.18;3.95;;;13.40;99.90;;;;;;5043264;28;20538;-80
2023/03/31 11:23:41;;;;;;;15.38;5.38;;;13.50;99.90;;;;;;5043278;28;20286;-80
2023/03/31 11:26:14;;;;;;;16.08;5.55;;;13.50;99.90;;;;;;5050417;28;20298;-78
2023/03/31 11:28:58;;;;;;;7.15;4.00;;;13.70;99.90;;;;;;5043446;28;20216;-79
2023/03/31 11:31:37;;;;;;;4.10;3.50;;;14.00;99.90;;;;;;5042013;28;20739;-79
2023/03/31 11:34:31;;;;;;;5.70;3.30;;;14.00;99.90;;;;;;5048004;28;20239;-79
2023/03/31 11:37:18;;;;;;;4.38;3.63;;;14.40;99.90;;;;;;5051346;28;20197;-79
2023/03/31 11:40:00;;;;;;;5.63;3.13;;;14.60;99.90;;;;;;5059947;28;20232;-80
2023/03/31 11:42:33;;;;;;;3.67;3.37;;;14.80;99.90;;;;;;5039918;28;20638;-79
2023/03/31 11:45:04;;;;;;;4.43;2.63;;;15.40;99.90;;;;;;5045495;28;20459;-79
2023/03/31 11:47:36;;;;;;;5.83;3.07;;;16.10;99.90;;;;;;5041019;28;20489;-80
2023/03/31 11:50:11;;;;;;;3.17;2.40;;;16.40;99.90;;;;;;5052898;28;20450;-81
2023/03/31 11:52:41;;;;;;;6.93;3.20;;;16.50;99.90;;;;;;5035518;28;20443;-80
2023/03/31 11:55:14;;;;;;;11.93;3.23;;;16.30;99.90;;;;;;5043124;28;20472;-78
2023/03/31 11:57:46;;;;;;;4.77;1.33;;;15.60;99.90;;;;;;5038911;28;20449;-80
2023/03/31 12:00:19;;;;;;;2.43;1.90;;;15.40;99.90;;;;;;5032700;28;20510;-79
2023/03/31 12:02:52;;;;;;;1.85;1.52;;;15.10;99.90;;;;;;5047929;28;20441;-81
2023/03/31 12:05:22;;;;;;;1.50;0.90;;;15.20;99.90;;;;;;5038268;28;20225;-81
2023/03/31 12:07:57;;;;;;;2.53;1.00;;;15.00;99.90;;;;;;5059028;28;20222;-81
2023/03/31 12:10:32;;;;;;;2.53;1.10;;;15.20;99.90;;;;;;5040589;28;20210;-79
2023/03/31 12:13:14;;;;;;;11.68;2.53;;;15.20;99.90;;;;;;5040688;28;20534;-79
2023/03/31 12:15:45;;;;;;;3.15;1.33;;;14.80;99.90;;;;;;5044372;28;20337;-81
2023/03/31 12:18:16;;;;;;;2.25;1.30;;;14.90;99.90;;;;;;5039254;28;20197;-81
2023/03/31 12:20:50;;;;;;;3.13;1.05;;;14.80;99.90;;;;;;5038588;28;20205;-79
2023/03/31 12:23:19;;;;;;;1.73;1.10;;;14.30;99.90;;;;;;5043404;28;20222;-81
2023/03/31 12:25:52;;;;;;;4.50;1.40;;;14.10;99.90;;;;;;5042219;28;20234;-82
2023/03/31 12:28:20;;;;;;;3.80;1.75;;;13.80;99.90;;;;;;5051670;28;20212;-81
2023/03/31 12:30:48;;;;;;;1.60;1.25;;;13.70;99.90;;;;;;5049272;28;20263;-81
2023/03/31 12:33:20;;;;;;;7.85;2.33;;;13.80;99.90;;;;;;5057019;28;20235;-82
2023/03/31 12:36:09;;;;;;;1.35;1.13;;;14.00;99.90;;;;;;5046592;28;20308;-81
2023/03/31 12:38:45;;;;;;;3.90;1.60;;;13.90;99.90;;;;;;5060187;28;20204;-79
2023/03/31 12:41:18;;;;;;;1.20;1.10;;;13.90;99.90;;;;;;5054719;28;20196;-79
2023/03/31 12:44:20;;;;;;;3.17;2.05;;;14.20;99.90;;;;;;5058329;28;20256;-77
2023/03/31 12:47:17;;;;;;;12.02;3.88;;;14.10;99.90;;;;;;5058683;28;20490;-80
2023/03/31 12:50:00;;;;;;;3.08;1.90;;;13.70;99.90;;;;;;5035540;28;20231;-79
2023/03/31 12:52:38;;;;;;;2.13;1.90;;;13.50;99.90;;;;;;5054552;28;20264;-82
2023/03/31 12:55:31;;;;;;;5.63;2.35;;;13.50;99.90;;;;;;5046116;28;20272;-79
2023/03/31 12:58:28;;;;;;;1.88;1.67;;;13.40;99.90;;;;;;5042678;28;20224;-80
2023/03/31 13:01:06;;;;;;;6.97;1.90;;;13.60;99.90;;;;;;5049094;28;20204;-79
2023/03/31 13:03:46;;;;;;;6.57;2.00;;;13.90;99.90;;;;;;5060071;28;20203;-80